Página principal
METAR-TAF:

METAR-TAF

Aeroportos :

Sal, Cabo Verde

Aeroporto Internacional Amílcar Cabral

latitude: 16-44N, longitude: 022-57W, altura: 54 m

Observação actual do tempo

O boletim foi feito há 1 hora e 0 minutos, às 11:00 UTC
Vento 7 kt de este
Temperatura 27°C
Humidade 58%
Pressão 1016 hPa
Visibilidade 10 km ou mais
Nuvens fragmentadasa uma altura de 1300 ft

METAR: GVAC 181100Z 08007KT 9999 BKN013 27/18 Q1016 NOSIG

Hora: 11:00 (12:00 UTC)

Previsão

O boletim foi feito há 1 hora e 0 minutos, às 11:00 UTC
Previsão válida de 18 às 12 UTC a 19 às 18 UTC
Vento 7 kt de nordeste
Visibilidade 10 km ou mais
Nuvens fragmentadasa uma altura de 1400 ft

TAF: GVAC 181100Z 1812/1918 05007KT 9999 BKN014

Observações e previsões do tempo de mais de 4000 aeroportos (mensagens METAR e TAF).

As estações disponíveis são os pontos amarelos e vermelhos sobre o mapa.

Mova o rato sobre o mapa para ver o nome da estação.

Depois clique no ponto para visualizar as observações e previsões meteorológicas.

Para alterar o mapa : clique nos botões verdes com uma cruz preta para aumentar o zoom; no botão verde com uma pitada de zoom; ou nas setas verdes para mapas adjacentes.


METAR-TAF: